Time;durP1;ratioP1;P1;durP2;ratioP2;P2;SDS_P1;SDS_P2;PMS_P1;PMS_P2;Temp;Humidity;BMP_temperature;BMP_pressure;BME280_temperature;BME280_humidity;BME280_pressure;Samples;Min_cycle;Max_cycle;Signal;HPM_P1;HPM_P2
2023/08/23 00:00:16;;;;;;;1.30;0.52;;;19.60;48.30;;;;;;5075422;28;20021;-62
2023/08/23 00:02:44;;;;;;;0.50;0.40;;;19.80;48.00;;;;;;5078380;28;20646;-62
2023/08/23 00:05:11;;;;;;;1.05;0.57;;;20.40;48.10;;;;;;5077410;28;20032;-61
2023/08/23 00:07:38;;;;;;;1.27;0.60;;;20.70;46.70;;;;;;5077780;28;20487;-63
2023/08/23 00:10:06;;;;;;;0.52;0.45;;;21.10;46.60;;;;;;5077828;28;20078;-62
2023/08/23 00:12:34;;;;;;;1.17;0.50;;;20.70;45.80;;;;;;5077895;28;20021;-62
2023/08/23 00:15:02;;;;;;;0.75;0.57;;;20.60;47.30;;;;;;5078891;28;20460;-62
2023/08/23 00:17:29;;;;;;;0.95;0.40;;;20.30;46.40;;;;;;5077821;28;20048;-61
2023/08/23 00:19:57;;;;;;;1.38;0.50;;;20.80;46.90;;;;;;5078067;28;20036;-62
2023/08/23 00:22:24;;;;;;;0.85;0.60;;;21.10;45.10;;;;;;5077753;28;20029;-62
2023/08/23 00:24:52;;;;;;;0.63;0.50;;;21.60;45.70;;;;;;5078611;28;20025;-62
2023/08/23 00:27:19;;;;;;;0.63;0.47;;;22.10;44.80;;;;;;5078598;28;20020;-62
2023/08/23 00:29:47;;;;;;;0.82;0.65;;;21.50;45.00;;;;;;5078404;28;20070;-62
2023/08/23 00:32:14;;;;;;;1.63;0.60;;;20.70;46.00;;;;;;5078481;28;20374;-62
2023/08/23 00:34:42;;;;;;;0.57;0.40;;;21.10;45.10;;;;;;5077255;28;20032;-62
2023/08/23 00:37:09;;;;;;;1.80;0.50;;;21.60;44.80;;;;;;5077271;28;20082;-62
2023/08/23 00:39:37;;;;;;;1.10;0.70;;;21.90;45.10;;;;;;5078311;28;20024;-62
2023/08/23 00:42:05;;;;;;;1.00;0.70;;;22.60;43.70;;;;;;5077324;28;20086;-62
2023/08/23 00:44:33;;;;;;;0.63;0.50;;;21.30;45.40;;;;;;5077015;28;20041;-62
2023/08/23 00:47:00;;;;;;;0.60;0.50;;;21.10;45.90;;;;;;5077228;28;20059;-62
2023/08/23 00:49:33;;;;;;;0.65;0.40;;;21.40;45.70;;;;;;5077905;28;20062;-62
2023/08/23 00:52:04;;;;;;;0.88;0.50;;;21.70;44.00;;;;;;5077317;28;20028;-62
2023/08/23 00:54:32;;;;;;;0.98;0.50;;;21.70;44.60;;;;;;5077176;28;20024;-62
2023/08/23 00:57:01;;;;;;;0.60;0.50;;;22.30;43.70;;;;;;5077090;28;20028;-61
2023/08/23 00:59:32;;;;;;;1.05;0.52;;;22.10;44.00;;;;;;5077030;28;20469;-62
2023/08/23 01:02:00;;;;;;;1.35;0.70;;;21.80;45.30;;;;;;5078007;28;20408;-62
2023/08/23 01:04:28;;;;;;;1.27;0.65;;;22.20;43.70;;;;;;5076818;28;20020;-62
2023/08/23 01:07:18;;;;;;;1.30;0.55;;;22.90;42.10;;;;;;5076761;28;20335;-63
2023/08/23 01:10:10;;;;;;;0.90;0.60;;;22.80;43.30;;;;;;5077645;28;20103;-63
2023/08/23 01:12:56;;;;;;;0.88;0.50;;;22.40;43.80;;;;;;5075910;28;20031;-63
2023/08/23 01:15:25;;;;;;;0.93;0.52;;;22.60;44.10;;;;;;5076669;28;20024;-62
2023/08/23 01:17:54;;;;;;;1.55;0.57;;;22.20;44.20;;;;;;5076542;28;20032;-62
2023/08/23 01:20:22;;;;;;;0.70;0.50;;;22.70;42.40;;;;;;5077588;28;20040;-61
2023/08/23 01:23:14;;;;;;;1.15;0.60;;;23.10;43.90;;;;;;5076218;28;20029;-62
2023/08/23 01:25:51;;;;;;;1.25;0.88;;;23.50;42.60;;;;;;5076198;28;20025;-63
2023/08/23 01:28:20;;;;;;;0.60;0.50;;;23.10;43.00;;;;;;5077306;28;20028;-63
2023/08/23 01:30:50;;;;;;;1.45;0.70;;;23.20;42.50;;;;;;5076344;28;20021;-62
2023/08/23 01:33:32;;;;;;;1.88;0.80;;;23.30;42.70;;;;;;5077046;28;20020;-62
2023/08/23 01:36:13;;;;;;;;;;;23.70;42.40;;;;;;5076537;28;20090;-62
2023/08/23 01:38:43;;;;;;;1.90;0.50;;;23.10;43.60;;;;;;5059453;28;20386;-62
2023/08/23 01:41:10;;;;;;;1.75;0.55;;;23.40;41.90;;;;;;5076077;28;20043;-62
2023/08/23 01:43:38;;;;;;;1.75;0.73;;;22.80;43.10;;;;;;5075939;28;20128;-63
2023/08/23 01:46:06;;;;;;;1.75;0.60;;;23.40;43.30;;;;;;5076889;28;20044;-62
2023/08/23 01:48:33;;;;;;;1.13;0.70;;;23.70;43.50;;;;;;5075875;28;20024;-62
2023/08/23 01:51:02;;;;;;;1.70;0.60;;;24.00;42.80;;;;;;5077117;28;20482;-61
2023/08/23 01:53:30;;;;;;;1.13;0.57;;;23.30;44.30;;;;;;5075887;28;20040;-63
2023/08/23 01:55:57;;;;;;;1.33;0.60;;;23.10;43.20;;;;;;5075961;28;20028;-63
2023/08/23 01:58:25;;;;;;;1.23;0.68;;;22.10;45.10;;;;;;5076600;28;20103;-63
2023/08/23 02:00:54;;;;;;;0.88;0.60;;;22.40;45.10;;;;;;5075383;28;20024;-62
2023/08/23 02:03:21;;;;;;;0.95;0.70;;;22.70;44.80;;;;;;5075465;28;20468;-62
2023/08/23 02:05:49;;;;;;;1.20;0.50;;;22.70;44.80;;;;;;5076704;28;20028;-61
2023/08/23 02:08:17;;;;;;;1.55;0.68;;;22.60;44.70;;;;;;5076611;28;20178;-63
2023/08/23 02:10:45;;;;;;;2.75;0.80;;;22.50;45.30;;;;;;5075581;28;20025;-62
2023/08/23 02:13:13;;;;;;;0.60;0.52;;;21.80;46.70;;;;;;5076493;28;20039;-62
2023/08/23 02:15:40;;;;;;;1.65;0.70;;;21.50;47.90;;;;;;5075479;28;20025;-62
2023/08/23 02:18:08;;;;;;;0.63;0.52;;;21.10;48.00;;;;;;5075268;28;20353;-62
2023/08/23 02:20:36;;;;;;;1.02;0.60;;;21.10;48.40;;;;;;5076364;28;20013;-62
2023/08/23 02:23:03;;;;;;;1.45;0.68;;;20.90;49.10;;;;;;5074342;28;20025;-62
2023/08/23 02:25:31;;;;;;;1.08;0.55;;;20.70;49.90;;;;;;5075699;28;20028;-62
2023/08/23 02:27:58;;;;;;;0.85;0.60;;;20.80;49.80;;;;;;5076350;28;20047;-64
2023/08/23 02:30:26;;;;;;;2.10;0.80;;;20.60;50.00;;;;;;5075059;28;20115;-64
2023/08/23 02:32:53;;;;;;;0.80;0.52;;;20.60;50.20;;;;;;5075769;28;20067;-63
2023/08/23 02:35:21;;;;;;;1.90;0.80;;;20.80;49.90;;;;;;5074459;28;20040;-64
2023/08/23 02:37:49;;;;;;;0.95;0.60;;;20.50;50.80;;;;;;5075327;28;20032;-64
2023/08/23 02:40:16;;;;;;;1.83;0.68;;;20.40;51.20;;;;;;5074531;28;20021;-64
2023/08/23 02:42:44;;;;;;;1.15;0.65;;;20.50;51.40;;;;;;5074213;28;20055;-62
2023/08/23 02:45:12;;;;;;;1.50;0.75;;;20.20;51.50;;;;;;5076258;28;20047;-62
2023/08/23 02:47:40;;;;;;;2.28;1.88;;;20.40;51.40;;;;;;5074799;28;20029;-63
2023/08/23 02:50:07;;;;;;;0.65;0.55;;;20.50;51.50;;;;;;5074193;28;20088;-63
2023/08/23 02:52:35;;;;;;;1.02;0.70;;;20.50;51.50;;;;;;5074532;28;20017;-63
2023/08/23 02:55:02;;;;;;;1.83;0.80;;;20.50;52.40;;;;;;5073732;28;20036;-63
2023/08/23 02:57:36;;;;;;;3.78;1.10;;;20.50;52.20;;;;;;5074596;28;20111;-63
2023/08/23 03:00:07;;;;;;;1.38;0.70;;;20.40;52.90;;;;;;5075086;28;20450;-63
2023/08/23 03:02:37;;;;;;;3.53;1.00;;;20.20;53.10;;;;;;5075201;28;20039;-65
2023/08/23 03:05:18;;;;;;;1.13;0.68;;;20.10;53.40;;;;;;5074946;28;20043;-68
2023/08/23 03:07:49;;;;;;;0.90;0.60;;;20.50;53.70;;;;;;5077096;28;20020;-68
2023/08/23 03:10:17;;;;;;;1.97;0.70;;;20.30;53.50;;;;;;5075565;28;20024;-69
2023/08/23 03:12:45;;;;;;;2.00;0.80;;;20.30;53.90;;;;;;5073633;28;20032;-67
2023/08/23 03:15:13;;;;;;;1.65;0.63;;;20.20;54.90;;;;;;5073549;28;20043;-68
2023/08/23 03:17:40;;;;;;;0.90;0.63;;;19.80;57.10;;;;;;5073466;28;20058;-68
2023/08/23 03:20:08;;;;;;;2.22;0.63;;;19.60;59.80;;;;;;5074574;28;20076;-67
2023/08/23 03:22:35;;;;;;;1.08;0.52;;;19.70;59.80;;;;;;5073652;28;20477;-71
2023/08/23 03:25:04;;;;;;;0.98;0.52;;;19.60;61.00;;;;;;5073500;28;20042;-68
2023/08/23 03:27:31;;;;;;;0.95;0.20;;;19.80;60.40;;;;;;5074626;28;20349;-68
2023/08/23 03:29:59;;;;;;;0.50;0.40;;;19.60;61.00;;;;;;5073577;28;20028;-67
2023/08/23 03:32:26;;;;;;;1.60;0.40;;;19.50;61.60;;;;;;5074006;28;20035;-68
2023/08/23 03:34:54;;;;;;;0.47;0.30;;;19.30;63.00;;;;;;5073984;28;20024;-68
2023/08/23 03:37:21;;;;;;;0.40;0.30;;;19.60;61.20;;;;;;5073712;28;20039;-69
2023/08/23 03:39:49;;;;;;;1.65;0.52;;;19.70;60.10;;;;;;5073392;28;20028;-68
2023/08/23 03:42:16;;;;;;;0.70;0.40;;;19.60;60.90;;;;;;5073577;28;20028;-67
2023/08/23 03:44:44;;;;;;;1.23;0.40;;;19.70;60.90;;;;;;5074000;28;20052;-69
2023/08/23 03:47:17;;;;;;;1.33;0.40;;;20.00;60.50;;;;;;5074161;28;20041;-65
2023/08/23 03:49:44;;;;;;;0.47;0.30;;;20.00;60.10;;;;;;5073407;28;20032;-65
2023/08/23 03:52:12;;;;;;;1.05;0.50;;;19.80;60.20;;;;;;5073366;28;20029;-65
2023/08/23 03:54:40;;;;;;;0.93;0.50;;;19.90;60.10;;;;;;5073783;28;20071;-65
2023/08/23 03:57:07;;;;;;;2.08;0.50;;;19.60;61.00;;;;;;5073752;28;20131;-65
2023/08/23 03:59:35;;;;;;;2.80;0.52;;;19.50;61.10;;;;;;5074604;28;20380;-66
2023/08/23 04:02:02;;;;;;;2.13;0.70;;;19.50;61.50;;;;;;5073697;28;20029;-66
2023/08/23 04:04:30;;;;;;;1.65;0.57;;;19.60;61.20;;;;;;5073628;28;20028;-66
2023/08/23 04:06:57;;;;;;;1.10;0.40;;;19.60;60.70;;;;;;5074694;28;20021;-66
2023/08/23 04:09:24;;;;;;;1.10;0.47;;;19.50;61.70;;;;;;5073166;28;20070;-65
2023/08/23 04:11:52;;;;;;;1.33;0.50;;;19.40;61.30;;;;;;5074438;28;20024;-65
2023/08/23 04:14:19;;;;;;;2.50;0.82;;;19.20;61.50;;;;;;5073487;28;20071;-65
2023/08/23 04:16:47;;;;;;;1.50;0.60;;;19.00;61.80;;;;;;5074600;28;20024;-66
2023/08/23 04:19:15;;;;;;;1.85;0.70;;;19.10;61.60;;;;;;5072874;28;20029;-64
2023/08/23 04:21:42;;;;;;;2.13;0.60;;;19.00;62.30;;;;;;5073231;28;20361;-66
2023/08/23 04:24:10;;;;;;;3.05;0.93;;;18.90;62.10;;;;;;5074681;28;20048;-66
2023/08/23 04:26:38;;;;;;;2.88;0.80;;;18.90;62.30;;;;;;5073770;28;20036;-66
2023/08/23 04:29:06;;;;;;;2.67;1.00;;;19.10;61.90;;;;;;5074602;28;20013;-65
2023/08/23 04:31:33;;;;;;;1.95;0.90;;;19.10;61.40;;;;;;5073688;28;20021;-65
2023/08/23 04:34:02;;;;;;;2.53;1.17;;;19.10;61.70;;;;;;5074700;28;20052;-64
2023/08/23 04:36:31;;;;;;;3.05;1.00;;;19.00;61.80;;;;;;5073553;28;20066;-65
2023/08/23 04:38:58;;;;;;;3.15;1.00;;;18.90;61.80;;;;;;5073395;28;20116;-65
2023/08/23 04:41:26;;;;;;;4.50;1.10;;;19.10;62.40;;;;;;5073605;28;20024;-65
2023/08/23 04:43:53;;;;;;;3.85;1.10;;;19.20;61.80;;;;;;5073362;28;20048;-66
2023/08/23 04:46:21;;;;;;;1.63;0.90;;;19.10;62.00;;;;;;5073771;28;20040;-65
2023/08/23 04:48:48;;;;;;;1.98;1.10;;;19.10;62.00;;;;;;5077167;28;20024;-66
2023/08/23 04:51:16;;;;;;;4.93;1.30;;;19.30;61.60;;;;;;5077251;28;20020;-65
2023/08/23 04:53:43;;;;;;;1.92;0.90;;;19.10;61.70;;;;;;5077212;28;20052;-66
2023/08/23 04:56:11;;;;;;;1.90;1.15;;;19.10;62.40;;;;;;5078087;28;20031;-64
2023/08/23 04:58:39;;;;;;;3.70;1.38;;;19.10;61.00;;;;;;5076870;28;20075;-64
2023/08/23 05:01:06;;;;;;;3.25;1.30;;;19.00;61.70;;;;;;5076914;28;20039;-65
2023/08/23 05:03:35;;;;;;;2.92;1.40;;;19.10;61.10;;;;;;5077968;28;20031;-65
2023/08/23 05:06:03;;;;;;;4.53;1.20;;;19.00;61.80;;;;;;5076889;28;20458;-66
2023/08/23 05:08:31;;;;;;;3.45;1.50;;;18.90;61.70;;;;;;5076711;28;20074;-66
2023/08/23 05:10:58;;;;;;;4.75;2.50;;;19.00;62.00;;;;;;5076839;28;20025;-66
2023/08/23 05:13:26;;;;;;;2.72;1.30;;;19.00;62.40;;;;;;5076769;28;20016;-65
2023/08/23 05:15:57;;;;;;;2.40;1.42;;;18.90;61.80;;;;;;5076711;28;20024;-66
2023/08/23 05:18:25;;;;;;;3.33;1.13;;;18.80;62.40;;;;;;5076559;28;20434;-66
2023/08/23 05:20:54;;;;;;;3.30;1.33;;;18.90;62.40;;;;;;5076649;28;20348;-67
2023/08/23 05:23:25;;;;;;;3.25;1.10;;;19.00;61.50;;;;;;5076523;28;20029;-65
2023/08/23 05:25:53;;;;;;;4.30;1.35;;;18.80;62.70;;;;;;5076363;28;20024;-65
2023/08/23 05:28:22;;;;;;;3.42;1.23;;;18.80;63.10;;;;;;5076317;28;20050;-67
2023/08/23 05:30:51;;;;;;;4.95;1.38;;;18.90;61.70;;;;;;5076370;28;20350;-65
2023/08/23 05:33:18;;;;;;;4.88;1.42;;;18.80;61.50;;;;;;5075215;28;20049;-65
2023/08/23 05:35:46;;;;;;;4.05;1.15;;;18.80;61.80;;;;;;5075194;28;20017;-65
2023/08/23 05:38:14;;;;;;;2.50;1.08;;;18.60;61.00;;;;;;5076800;28;20403;-66
2023/08/23 05:40:42;;;;;;;4.15;1.30;;;18.50;61.20;;;;;;5077281;28;20339;-66
2023/08/23 05:43:09;;;;;;;3.40;0.93;;;18.50;61.90;;;;;;5075779;28;20052;-66
2023/08/23 05:45:36;;;;;;;2.67;0.90;;;18.60;60.80;;;;;;5075933;28;20470;-66
2023/08/23 05:48:04;;;;;;;3.90;1.25;;;18.60;61.00;;;;;;5075917;28;20564;-67
2023/08/23 05:50:32;;;;;;;4.63;1.48;;;18.60;61.20;;;;;;5075942;28;20024;-65
2023/08/23 05:53:00;;;;;;;4.65;1.00;;;18.50;61.80;;;;;;5076047;28;20024;-65
2023/08/23 05:55:27;;;;;;;4.28;1.55;;;18.40;62.90;;;;;;5076993;28;20060;-66
2023/08/23 05:57:55;;;;;;;6.93;1.73;;;18.30;62.90;;;;;;5075526;28;20028;-66
2023/08/23 06:00:23;;;;;;;5.72;1.55;;;18.20;63.20;;;;;;5075850;28;20020;-65
2023/08/23 06:02:50;;;;;;;5.13;1.45;;;18.10;63.30;;;;;;5075377;28;20063;-65
2023/08/23 06:05:17;;;;;;;4.18;1.33;;;18.20;62.90;;;;;;5076229;28;20043;-65
2023/08/23 06:07:45;;;;;;;6.18;1.70;;;18.20;62.40;;;;;;5075181;28;20020;-65
2023/08/23 06:10:12;;;;;;;3.00;1.27;;;18.20;62.70;;;;;;5077645;28;20035;-65
2023/08/23 06:12:43;;;;;;;4.22;1.10;;;18.20;62.90;;;;;;5074919;28;20051;-65
2023/08/23 06:15:11;;;;;;;3.28;1.00;;;18.20;62.70;;;;;;5076586;28;20021;-65
2023/08/23 06:17:38;;;;;;;4.95;1.23;;;18.10;62.70;;;;;;5075317;28;20279;-64
2023/08/23 06:20:07;;;;;;;3.70;1.38;;;18.10;63.40;;;;;;5075422;28;20024;-66
2023/08/23 06:22:34;;;;;;;3.55;1.27;;;18.10;63.10;;;;;;5075476;28;20032;-66
2023/08/23 06:25:02;;;;;;;4.72;1.10;;;18.00;63.20;;;;;;5074989;28;20025;-66
2023/08/23 06:27:29;;;;;;;3.00;1.05;;;17.90;63.70;;;;;;5074779;28;20024;-65
2023/08/23 06:29:57;;;;;;;3.67;1.05;;;17.80;63.70;;;;;;5076116;28;20044;-65
2023/08/23 06:32:25;;;;;;;4.32;1.20;;;17.90;63.80;;;;;;5075137;28;20031;-65
2023/08/23 06:34:53;;;;;;;5.38;1.35;;;17.90;64.20;;;;;;5076164;28;20083;-65
2023/08/23 06:37:24;;;;;;;3.83;1.17;;;17.80;64.30;;;;;;5075102;28;20042;-66
2023/08/23 06:39:51;;;;;;;8.88;1.90;;;17.90;64.20;;;;;;5074801;28;20055;-66
2023/08/23 06:42:19;;;;;;;8.45;1.25;;;17.80;64.20;;;;;;5075075;28;20032;-66
2023/08/23 06:44:47;;;;;;;3.22;1.63;;;17.80;64.20;;;;;;5074550;28;20044;-65
2023/08/23 06:47:14;;;;;;;4.50;1.52;;;17.80;64.50;;;;;;5075750;28;20396;-66
2023/08/23 06:49:42;;;;;;;5.38;1.25;;;17.70;64.70;;;;;;5074568;28;20437;-66
2023/08/23 06:52:09;;;;;;;3.10;1.10;;;17.60;64.80;;;;;;5074939;28;20059;-65
2023/08/23 06:54:37;;;;;;;3.38;1.10;;;17.60;64.90;;;;;;5074846;28;20025;-65
2023/08/23 06:57:05;;;;;;;4.32;1.10;;;17.60;65.00;;;;;;5074625;28;20024;-65
2023/08/23 06:59:33;;;;;;;3.53;1.50;;;17.60;64.90;;;;;;5074340;28;20040;-65
2023/08/23 07:02:00;;;;;;;2.90;1.20;;;17.50;64.70;;;;;;5074608;28;20100;-65
2023/08/23 07:04:28;;;;;;;4.75;1.30;;;17.40;64.90;;;;;;5075522;28;20074;-65
2023/08/23 07:06:57;;;;;;;4.97;1.30;;;17.30;65.00;;;;;;5074459;28;20082;-66
2023/08/23 07:09:25;;;;;;;2.63;1.02;;;17.20;65.30;;;;;;5073779;28;20016;-65
2023/08/23 07:11:53;;;;;;;6.07;1.00;;;17.10;65.70;;;;;;5074574;28;20104;-66
2023/08/23 07:14:20;;;;;;;4.03;1.00;;;17.20;65.50;;;;;;5074169;28;20029;-64
2023/08/23 07:16:47;;;;;;;4.55;1.40;;;17.10;65.90;;;;;;5074321;28;20120;-65
2023/08/23 07:19:15;;;;;;;6.53;1.50;;;17.10;66.20;;;;;;5074271;28;20454;-65
2023/08/23 07:21:42;;;;;;;5.70;1.13;;;17.10;66.60;;;;;;5074192;28;20032;-65
2023/08/23 07:24:10;;;;;;;5.20;1.80;;;17.00;66.80;;;;;;5075111;28;20349;-66
2023/08/23 07:26:38;;;;;;;5.35;1.10;;;17.10;66.80;;;;;;5074928;28;20327;-66
2023/08/23 07:29:06;;;;;;;3.83;1.00;;;17.00;67.30;;;;;;5073972;28;20016;-66
2023/08/23 07:31:33;;;;;;;5.18;1.15;;;16.90;67.50;;;;;;5075235;28;20150;-66
2023/08/23 07:34:00;;;;;;;7.18;1.23;;;16.90;67.50;;;;;;5074128;28;20028;-66
2023/08/23 07:36:28;;;;;;;6.72;1.48;;;16.80;67.80;;;;;;5074031;28;20025;-65
2023/08/23 07:38:56;;;;;;;5.05;1.20;;;16.90;67.80;;;;;;5075051;28;20457;-64
2023/08/23 07:41:23;;;;;;;4.97;1.60;;;16.90;67.80;;;;;;5075187;28;20020;-65
2023/08/23 07:43:51;;;;;;;7.53;1.50;;;16.80;67.60;;;;;;5073900;28;20055;-65
2023/08/23 07:46:18;;;;;;;6.95;1.25;;;16.70;68.00;;;;;;5074097;28;20063;-65
2023/08/23 07:48:46;;;;;;;3.92;1.00;;;16.70;68.10;;;;;;5074001;28;20036;-65
2023/08/23 07:51:13;;;;;;;9.20;1.30;;;16.80;68.00;;;;;;5075003;28;20020;-65
2023/08/23 07:53:43;;;;;;;6.63;1.40;;;16.70;68.20;;;;;;5075006;28;20024;-65
2023/08/23 07:56:11;;;;;;;7.15;1.30;;;16.70;68.20;;;;;;5073989;28;20035;-66
2023/08/23 07:58:39;;;;;;;5.70;1.15;;;16.80;68.30;;;;;;5073929;28;20476;-65
2023/08/23 08:01:07;;;;;;;5.53;1.30;;;16.80;68.60;;;;;;5074059;28;20391;-66
2023/08/23 08:03:34;;;;;;;6.55;1.60;;;16.80;68.30;;;;;;5073878;28;20036;-66
2023/08/23 08:06:01;;;;;;;7.00;1.30;;;16.80;68.10;;;;;;5073931;28;20119;-65
2023/08/23 08:08:29;;;;;;;7.70;1.20;;;16.70;68.10;;;;;;5073751;28;20036;-65
2023/08/23 08:10:57;;;;;;;3.85;1.50;;;16.60;68.50;;;;;;5073834;28;20108;-65
2023/08/23 08:13:25;;;;;;;4.93;1.60;;;16.60;68.10;;;;;;5073746;28;20438;-64
2023/08/23 08:15:53;;;;;;;4.43;1.60;;;16.60;68.50;;;;;;5073707;28;20025;-65
2023/08/23 08:18:20;;;;;;;6.10;1.80;;;16.60;68.20;;;;;;5074674;28;20095;-65
2023/08/23 08:20:49;;;;;;;5.57;1.50;;;16.60;68.60;;;;;;5074719;28;20180;-64
2023/08/23 08:23:16;;;;;;;5.43;1.20;;;16.70;68.30;;;;;;5061217;28;20025;-65
2023/08/23 08:25:44;;;;;;;5.85;1.75;;;16.70;68.50;;;;;;5078548;28;20021;-65
2023/08/23 08:28:12;;;;;;;5.97;1.50;;;16.60;68.30;;;;;;5077543;28;20027;-64
2023/08/23 08:30:39;;;;;;;6.28;1.20;;;16.60;68.30;;;;;;5078431;28;20025;-65
2023/08/23 08:33:06;;;;;;;6.35;1.40;;;16.60;68.50;;;;;;5077547;28;20016;-64
2023/08/23 08:35:34;;;;;;;5.97;1.50;;;16.60;68.40;;;;;;5077527;28;20024;-65
2023/08/23 08:38:02;;;;;;;7.80;1.50;;;16.60;68.70;;;;;;5078410;28;20419;-65
2023/08/23 08:40:30;;;;;;;7.88;1.55;;;16.60;68.50;;;;;;5077335;28;20032;-68
2023/08/23 08:42:57;;;;;;;4.65;1.27;;;16.60;68.60;;;;;;5077031;28;20059;-67
2023/08/23 08:45:25;;;;;;;5.78;1.48;;;16.70;68.40;;;;;;5077053;28;20074;-66
2023/08/23 08:47:53;;;;;;;7.00;1.92;;;16.90;68.30;;;;;;5077762;28;20024;-66
2023/08/23 08:50:21;;;;;;;4.97;1.38;;;17.00;68.30;;;;;;5077782;28;20099;-66
2023/08/23 08:52:53;;;;;;;6.25;1.33;;;16.80;68.10;;;;;;5077103;28;20040;-66
2023/08/23 08:55:25;;;;;;;8.32;1.52;;;16.80;68.30;;;;;;5076669;28;20035;-66
2023/08/23 08:57:54;;;;;;;7.18;1.75;;;16.90;68.40;;;;;;5076230;28;20033;-67
2023/08/23 09:00:25;;;;;;;7.38;1.45;;;17.00;68.50;;;;;;5078011;28;20082;-67
2023/08/23 09:02:57;;;;;;;4.88;1.63;;;16.90;68.40;;;;;;5076724;28;20036;-66
2023/08/23 09:05:26;;;;;;;7.03;1.65;;;17.00;68.30;;;;;;5076842;28;20351;-66
2023/08/23 09:07:56;;;;;;;6.25;1.60;;;17.00;67.90;;;;;;5076724;28;20025;-67
2023/08/23 09:10:25;;;;;;;5.00;1.58;;;16.90;68.50;;;;;;5076786;28;20035;-66
2023/08/23 09:12:53;;;;;;;7.22;1.60;;;16.80;68.40;;;;;;5077709;28;20063;-66
2023/08/23 09:15:24;;;;;;;4.65;1.23;;;16.90;68.50;;;;;;5076697;28;20354;-67
2023/08/23 09:17:56;;;;;;;5.90;1.77;;;16.80;68.20;;;;;;5077290;28;20326;-66
2023/08/23 09:20:24;;;;;;;7.78;1.77;;;16.90;68.80;;;;;;5077267;28;20065;-66
2023/08/23 09:22:56;;;;;;;7.03;1.70;;;16.80;68.80;;;;;;5076604;28;20047;-66
2023/08/23 09:25:25;;;;;;;8.07;2.00;;;16.80;68.70;;;;;;5059572;28;20032;-66
2023/08/23 09:27:55;;;;;;;7.85;2.38;;;16.80;69.00;;;;;;5076160;28;20103;-66
2023/08/23 09:30:23;;;;;;;11.02;2.47;;;16.80;69.30;;;;;;5076477;28;20064;-66
2023/08/23 09:32:51;;;;;;;9.50;1.77;;;16.80;69.60;;;;;;5075838;28;20052;-66
2023/08/23 09:35:19;;;;;;;7.05;1.90;;;16.70;69.80;;;;;;5076419;28;20350;-67
2023/08/23 09:37:49;;;;;;;6.25;1.70;;;16.60;70.20;;;;;;5076255;28;20039;-66
2023/08/23 09:40:22;;;;;;;6.10;1.98;;;16.60;70.60;;;;;;5075678;28;20047;-66
2023/08/23 09:42:52;;;;;;;7.63;1.63;;;16.70;70.60;;;;;;5075569;28;20045;-66
2023/08/23 09:45:23;;;;;;;8.35;1.98;;;16.70;70.60;;;;;;5076593;28;20071;-67
2023/08/23 09:47:56;;;;;;;9.43;2.25;;;16.70;70.40;;;;;;5076005;28;20021;-66
2023/08/23 09:50:26;;;;;;;6.07;1.60;;;16.70;70.70;;;;;;5076050;28;20052;-66
2023/08/23 09:53:06;;;;;;;7.22;1.73;;;16.60;70.90;;;;;;5075913;28;20016;-66
2023/08/23 09:55:35;;;;;;;8.18;1.50;;;16.70;71.00;;;;;;5075984;28;20028;-67
2023/08/23 09:58:03;;;;;;;5.00;2.00;;;16.70;71.00;;;;;;5075746;28;20453;-67
2023/08/23 10:00:31;;;;;;;11.02;2.20;;;16.70;71.10;;;;;;5075755;28;20036;-65
2023/08/23 10:03:00;;;;;;;5.38;1.73;;;16.70;71.30;;;;;;5075695;28;20029;-66
2023/08/23 10:05:28;;;;;;;9.90;2.05;;;16.60;71.40;;;;;;5076687;28;20028;-66
2023/08/23 10:07:57;;;;;;;6.55;1.70;;;16.60;71.50;;;;;;5076594;28;20067;-66
2023/08/23 10:10:27;;;;;;;6.50;2.08;;;16.60;71.70;;;;;;5076576;28;20021;-66
2023/08/23 10:12:58;;;;;;;6.82;1.83;;;16.50;71.50;;;;;;5075541;28;20088;-66
2023/08/23 10:15:35;;;;;;;5.75;1.88;;;16.50;71.60;;;;;;5076159;28;20028;-66
2023/08/23 10:18:07;;;;;;;5.57;1.40;;;16.60;71.50;;;;;;5075295;28;20119;-67
2023/08/23 10:20:37;;;;;;;4.53;1.60;;;16.60;71.20;;;;;;5075482;28;20032;-66
2023/08/23 10:23:16;;;;;;;6.95;1.88;;;16.60;71.40;;;;;;5075236;28;20074;-66
2023/08/23 10:25:46;;;;;;;9.02;1.90;;;16.50;71.60;;;;;;5058900;28;20446;-66
2023/08/23 10:28:16;;;;;;;6.22;1.67;;;16.50;71.40;;;;;;5074915;28;20036;-65
2023/08/23 10:30:52;;;;;;;5.45;1.65;;;16.50;71.70;;;;;;5075160;28;20021;-66
2023/08/23 10:33:20;;;;;;;7.03;1.60;;;16.50;71.70;;;;;;5076010;28;20048;-66
2023/08/23 10:35:48;;;;;;;7.90;1.63;;;16.50;71.70;;;;;;5076049;28;20073;-66
2023/08/23 10:38:16;;;;;;;9.02;2.15;;;16.40;71.60;;;;;;5075973;28;20055;-66
2023/08/23 10:40:46;;;;;;;6.20;1.77;;;16.40;71.90;;;;;;5075004;28;20029;-66
2023/08/23 10:43:19;;;;;;;7.38;1.90;;;16.40;71.90;;;;;;5074684;28;20198;-66
2023/08/23 10:45:56;;;;;;;4.28;1.50;;;16.50;72.00;;;;;;5073983;28;20036;-66
2023/08/23 10:48:24;;;;;;;4.93;1.60;;;16.40;71.50;;;;;;5074826;28;20469;-66
2023/08/23 10:50:53;;;;;;;6.35;1.73;;;16.40;71.70;;;;;;5074754;28;20467;-66
2023/08/23 10:53:21;;;;;;;5.00;1.60;;;16.40;71.60;;;;;;5074836;28;20346;-66
2023/08/23 10:55:49;;;;;;;6.70;1.80;;;16.30;71.70;;;;;;5075734;28;20441;-65
2023/08/23 10:58:18;;;;;;;7.03;1.70;;;16.30;71.80;;;;;;5074666;28;20028;-66
2023/08/23 11:00:53;;;;;;;5.18;1.40;;;16.20;71.70;;;;;;5074680;28;20029;-66
2023/08/23 11:03:21;;;;;;;6.18;2.08;;;16.20;71.70;;;;;;5074712;28;20025;-67
2023/08/23 11:05:48;;;;;;;7.18;2.47;;;16.20;71.70;;;;;;5074478;28;20121;-66
2023/08/23 11:08:17;;;;;;;6.82;1.60;;;16.10;71.90;;;;;;5075498;28;20017;-67
2023/08/23 11:10:44;;;;;;;6.95;1.85;;;16.20;71.90;;;;;;5075494;28;20016;-67
2023/08/23 11:13:13;;;;;;;5.82;1.90;;;16.20;72.00;;;;;;5074480;28;20327;-66
2023/08/23 11:15:43;;;;;;;9.25;2.30;;;16.20;72.00;;;;;;5074480;28;20374;-66
2023/08/23 11:18:14;;;;;;;9.38;2.10;;;16.10;72.30;;;;;;5074182;28;20020;-66
2023/08/23 11:20:42;;;;;;;8.35;2.65;;;16.00;72.20;;;;;;5074399;28;20028;-66
2023/08/23 11:23:10;;;;;;;9.10;2.00;;;16.00;72.40;;;;;;5074606;28;20118;-65
2023/08/23 11:25:38;;;;;;;5.47;2.33;;;16.00;72.40;;;;;;5074618;28;20418;-67
2023/08/23 11:28:06;;;;;;;7.68;2.42;;;16.00;72.40;;;;;;5074359;28;20028;-65
2023/08/23 11:30:34;;;;;;;6.28;2.10;;;16.00;72.50;;;;;;5074303;28;20469;-66
2023/08/23 11:33:03;;;;;;;7.15;2.25;;;15.90;72.60;;;;;;5074368;28;20020;-67
2023/08/23 11:35:30;;;;;;;4.65;2.13;;;15.80;73.00;;;;;;5074306;28;20021;-65
2023/08/23 11:37:58;;;;;;;6.63;2.40;;;15.80;73.10;;;;;;5074217;28;20032;-67
2023/08/23 11:40:26;;;;;;;8.15;2.80;;;15.70;73.10;;;;;;5074253;28;20032;-66
2023/08/23 11:42:57;;;;;;;8.20;2.70;;;15.60;73.20;;;;;;5074043;28;20040;-67
2023/08/23 11:45:26;;;;;;;8.07;2.70;;;15.50;73.40;;;;;;5074059;28;20020;-67
2023/08/23 11:47:54;;;;;;;11.15;2.80;;;15.50;73.70;;;;;;5074051;28;20028;-66
2023/08/23 11:50:21;;;;;;;6.60;2.35;;;15.50;73.80;;;;;;5074188;28;20028;-67
2023/08/23 11:52:50;;;;;;;8.48;2.92;;;15.40;73.80;;;;;;5075063;28;20394;-66
2023/08/23 11:55:24;;;;;;;8.43;2.65;;;15.40;73.90;;;;;;5073769;28;20159;-66
2023/08/23 11:57:55;;;;;;;8.95;3.25;;;15.30;74.10;;;;;;5073997;28;20358;-67
2023/08/23 12:00:23;;;;;;;7.38;2.60;;;15.40;74.40;;;;;;5074084;28;20024;-67
2023/08/23 12:02:52;;;;;;;7.03;2.95;;;15.30;74.30;;;;;;5074052;28;20133;-67
2023/08/23 12:05:20;;;;;;;9.18;2.55;;;15.20;74.40;;;;;;5073750;28;20025;-66
2023/08/23 12:07:48;;;;;;;6.95;2.65;;;15.20;74.70;;;;;;5073749;28;20020;-65
2023/08/23 12:10:15;;;;;;;6.65;2.50;;;15.20;74.40;;;;;;5073960;28;20035;-65
2023/08/23 12:12:43;;;;;;;7.28;2.53;;;15.10;74.60;;;;;;5073943;28;20028;-67
2023/08/23 12:15:11;;;;;;;6.20;2.38;;;15.10;74.60;;;;;;5073888;28;20353;-67
2023/08/23 12:17:38;;;;;;;7.95;2.20;;;15.20;74.70;;;;;;5073654;28;20028;-67
2023/08/23 12:20:11;;;;;;;4.43;2.15;;;15.10;75.20;;;;;;5073853;28;20468;-66
2023/08/23 12:22:43;;;;;;;;;;;15.00;75.50;;;;;;5074320;28;20230;-66
2023/08/23 12:25:11;;;;;;;8.60;2.35;;;15.00;75.90;;;;;;5074828;28;20340;-66
2023/08/23 12:27:39;;;;;;;7.47;2.67;;;15.00;75.90;;;;;;5073613;28;20033;-67
2023/08/23 12:30:11;;;;;;;10.35;3.08;;;15.00;76.00;;;;;;5073704;28;20025;-67
2023/08/23 12:32:40;;;;;;;6.38;2.60;;;14.90;76.50;;;;;;5073713;28;20124;-66
2023/08/23 12:35:08;;;;;;;8.43;2.47;;;14.90;76.60;;;;;;5074562;28;20029;-66
2023/08/23 12:37:35;;;;;;;6.30;2.20;;;14.70;78.00;;;;;;5073618;28;20039;-67
2023/08/23 12:40:05;;;;;;;8.60;2.53;;;14.60;78.40;;;;;;5073554;28;20500;-67
2023/08/23 12:42:32;;;;;;;10.32;2.97;;;14.60;78.00;;;;;;5073442;28;20029;-67
2023/08/23 12:45:00;;;;;;;6.22;2.30;;;14.50;78.50;;;;;;5073565;28;20357;-66
2023/08/23 12:47:28;;;;;;;9.93;2.45;;;14.50;78.90;;;;;;5074605;28;20024;-66
2023/08/23 12:49:56;;;;;;;6.85;2.70;;;14.50;78.70;;;;;;5074581;28;20017;-66
2023/08/23 12:52:24;;;;;;;6.03;2.13;;;14.50;78.40;;;;;;5073563;28;20485;-66
2023/08/23 12:54:51;;;;;;;6.97;2.60;;;14.40;78.60;;;;;;5073506;28;20029;-66